sensor_id;sensor_type;location;lat;lon;timestamp;pressure;altitude;pressure_sealevel;temperature;humidity
6144;BME280;3103;49.492;8.474;2022-08-18T00:01:48;100135.66;;;24.68;53.16
6144;BME280;3103;49.492;8.474;2022-08-18T00:04:16;100127.63;;;24.63;53.33
6144;BME280;3103;49.492;8.474;2022-08-18T00:07:08;100131.16;;;24.63;53.20
6144;BME280;3103;49.492;8.474;2022-08-18T00:09:36;100128.59;;;24.79;52.66
6144;BME280;3103;49.492;8.474;2022-08-18T00:12:08;100129.81;;;24.69;52.90
6144;BME280;3103;49.492;8.474;2022-08-18T00:14:38;100129.94;;;24.73;53.02
6144;BME280;3103;49.492;8.474;2022-08-18T00:17:04;100127.06;;;24.69;53.16
6144;BME280;3103;49.492;8.474;2022-08-18T00:19:31;100124.53;;;24.52;53.35
6144;BME280;3103;49.492;8.474;2022-08-18T00:22:16;100114.25;;;24.73;52.82
6144;BME280;3103;49.492;8.474;2022-08-18T00:24:45;100111.25;;;24.54;53.37
6144;BME280;3103;49.492;8.474;2022-08-18T00:27:16;100106.66;;;24.46;54.26
6144;BME280;3103;49.492;8.474;2022-08-18T00:29:48;100102.44;;;24.48;53.94
6144;BME280;3103;49.492;8.474;2022-08-18T00:32:18;100104.84;;;24.50;54.12
6144;BME280;3103;49.492;8.474;2022-08-18T00:34:45;100101.03;;;24.30;54.94
6144;BME280;3103;49.492;8.474;2022-08-18T00:37:12;100100.47;;;24.37;55.30
6144;BME280;3103;49.492;8.474;2022-08-18T00:39:39;100091.50;;;24.27;55.89
6144;BME280;3103;49.492;8.474;2022-08-18T00:42:20;100093.66;;;24.22;56.49
6144;BME280;3103;49.492;8.474;2022-08-18T00:45:03;100096.06;;;24.23;57.39
6144;BME280;3103;49.492;8.474;2022-08-18T00:47:31;100103.47;;;24.11;58.15
6144;BME280;3103;49.492;8.474;2022-08-18T00:50:14;100115.66;;;24.01;59.09
6144;BME280;3103;49.492;8.474;2022-08-18T00:52:46;100116.31;;;23.98;58.69
6144;BME280;3103;49.492;8.474;2022-08-18T00:55:16;100125.75;;;23.88;59.48
6144;BME280;3103;49.492;8.474;2022-08-18T00:57:45;100123.41;;;23.78;59.70
6144;BME280;3103;49.492;8.474;2022-08-18T01:00:14;100137.19;;;23.90;59.35
6144;BME280;3103;49.492;8.474;2022-08-18T01:02:48;100137.28;;;23.82;59.66
6144;BME280;3103;49.492;8.474;2022-08-18T01:05:26;100151.66;;;23.79;59.97
6144;BME280;3103;49.492;8.474;2022-08-18T01:07:55;100143.66;;;24.07;58.51
6144;BME280;3103;49.492;8.474;2022-08-18T01:10:23;100132.38;;;24.08;58.09
6144;BME280;3103;49.492;8.474;2022-08-18T01:12:53;100122.22;;;24.21;57.98
6144;BME280;3103;49.492;8.474;2022-08-18T01:15:21;100127.88;;;24.04;58.48
6144;BME280;3103;49.492;8.474;2022-08-18T01:18:02;100137.47;;;23.97;58.50
6144;BME280;3103;49.492;8.474;2022-08-18T01:23:56;100135.38;;;24.15;58.02
6144;BME280;3103;49.492;8.474;2022-08-18T01:26:25;100144.00;;;24.05;57.92
6144;BME280;3103;49.492;8.474;2022-08-18T01:28:52;100138.53;;;24.05;58.04
6144;BME280;3103;49.492;8.474;2022-08-18T01:31:33;100138.50;;;23.93;58.37
6144;BME280;3103;49.492;8.474;2022-08-18T01:34:06;100143.63;;;23.94;58.17
6144;BME280;3103;49.492;8.474;2022-08-18T01:36:36;100141.81;;;23.78;58.38
6144;BME280;3103;49.492;8.474;2022-08-18T01:39:11;100139.13;;;23.90;58.03
6144;BME280;3103;49.492;8.474;2022-08-18T01:41:39;100134.91;;;23.92;57.77
6144;BME280;3103;49.492;8.474;2022-08-18T01:44:06;100137.59;;;24.01;57.42
6144;BME280;3103;49.492;8.474;2022-08-18T01:46:39;100132.78;;;23.98;57.35
6144;BME280;3103;49.492;8.474;2022-08-18T01:49:08;100133.19;;;23.88;57.76
6144;BME280;3103;49.492;8.474;2022-08-18T01:51:36;100132.41;;;23.66;58.47
6144;BME280;3103;49.492;8.474;2022-08-18T01:54:09;100126.22;;;23.90;57.62
6144;BME280;3103;49.492;8.474;2022-08-18T01:56:36;100127.63;;;23.96;57.03
6144;BME280;3103;49.492;8.474;2022-08-18T01:59:03;100125.47;;;24.02;57.06
6144;BME280;3103;49.492;8.474;2022-08-18T02:01:37;100124.44;;;23.94;57.27
6144;BME280;3103;49.492;8.474;2022-08-18T02:04:16;100117.94;;;23.78;57.72
6144;BME280;3103;49.492;8.474;2022-08-18T02:07:01;100113.16;;;23.46;59.03
6144;BME280;3103;49.492;8.474;2022-08-18T02:09:30;100115.13;;;23.36;59.26
6144;BME280;3103;49.492;8.474;2022-08-18T02:11:56;100117.00;;;23.53;58.69
6144;BME280;3103;49.492;8.474;2022-08-18T02:14:23;100115.56;;;23.47;58.97
6144;BME280;3103;49.492;8.474;2022-08-18T02:16:55;100112.56;;;23.40;59.35
6144;BME280;3103;49.492;8.474;2022-08-18T02:19:46;100111.47;;;23.32;59.25
6144;BME280;3103;49.492;8.474;2022-08-18T02:22:19;100111.34;;;23.29;59.31
6144;BME280;3103;49.492;8.474;2022-08-18T02:24:46;100113.94;;;23.25;59.40
6144;BME280;3103;49.492;8.474;2022-08-18T02:27:13;100116.91;;;23.41;58.96
6144;BME280;3103;49.492;8.474;2022-08-18T02:29:40;100119.44;;;23.25;59.27
6144;BME280;3103;49.492;8.474;2022-08-18T02:32:07;100108.81;;;23.24;59.18
6144;BME280;3103;49.492;8.474;2022-08-18T02:34:34;100125.31;;;23.36;58.77
6144;BME280;3103;49.492;8.474;2022-08-18T02:37:01;100125.59;;;23.43;58.44
6144;BME280;3103;49.492;8.474;2022-08-18T02:39:29;100119.75;;;23.24;59.13
6144;BME280;3103;49.492;8.474;2022-08-18T02:41:56;100122.69;;;23.19;59.18
6144;BME280;3103;49.492;8.474;2022-08-18T02:44:22;100122.81;;;23.22;59.02
6144;BME280;3103;49.492;8.474;2022-08-18T02:46:53;100126.66;;;23.30;58.90
6144;BME280;3103;49.492;8.474;2022-08-18T02:49:20;100126.44;;;23.35;58.98
6144;BME280;3103;49.492;8.474;2022-08-18T02:51:48;100119.59;;;23.20;59.31
6144;BME280;3103;49.492;8.474;2022-08-18T02:54:15;100114.59;;;23.22;59.53
6144;BME280;3103;49.492;8.474;2022-08-18T02:56:42;100120.97;;;23.35;58.99
6144;BME280;3103;49.492;8.474;2022-08-18T02:59:14;100113.22;;;23.37;59.15
6144;BME280;3103;49.492;8.474;2022-08-18T03:01:45;100121.63;;;23.32;59.28
6144;BME280;3103;49.492;8.474;2022-08-18T03:04:14;100119.09;;;23.27;59.33
6144;BME280;3103;49.492;8.474;2022-08-18T03:06:42;100123.22;;;23.33;59.56
6144;BME280;3103;49.492;8.474;2022-08-18T03:09:12;100114.88;;;23.29;59.87
6144;BME280;3103;49.492;8.474;2022-08-18T03:11:39;100114.22;;;23.03;60.59
6144;BME280;3103;49.492;8.474;2022-08-18T03:14:09;100107.66;;;22.95;61.23
6144;BME280;3103;49.492;8.474;2022-08-18T03:16:43;100110.91;;;22.80;61.98
6144;BME280;3103;49.492;8.474;2022-08-18T03:19:27;100104.13;;;22.95;61.35
6144;BME280;3103;49.492;8.474;2022-08-18T03:21:56;100104.94;;;22.78;62.11
6144;BME280;3103;49.492;8.474;2022-08-18T03:24:29;100100.94;;;22.84;62.07
6144;BME280;3103;49.492;8.474;2022-08-18T03:26:59;100102.38;;;22.81;62.12
6144;BME280;3103;49.492;8.474;2022-08-18T03:29:27;100113.03;;;22.83;62.12
6144;BME280;3103;49.492;8.474;2022-08-18T03:32:00;100111.50;;;22.94;61.82
6144;BME280;3103;49.492;8.474;2022-08-18T03:34:27;100110.72;;;22.94;61.80
6144;BME280;3103;49.492;8.474;2022-08-18T03:36:53;100100.56;;;22.94;61.71
6144;BME280;3103;49.492;8.474;2022-08-18T03:39:20;100109.19;;;23.14;61.30
6144;BME280;3103;49.492;8.474;2022-08-18T03:41:50;100094.03;;;23.07;61.42
6144;BME280;3103;49.492;8.474;2022-08-18T03:44:33;100104.75;;;23.21;61.04
6144;BME280;3103;49.492;8.474;2022-08-18T03:47:02;100104.38;;;23.31;60.75
6144;BME280;3103;49.492;8.474;2022-08-18T03:49:30;100097.72;;;22.82;62.42
6144;BME280;3103;49.492;8.474;2022-08-18T03:51:59;100097.88;;;22.77;62.64
6144;BME280;3103;49.492;8.474;2022-08-18T03:54:27;100098.34;;;22.79;62.91
6144;BME280;3103;49.492;8.474;2022-08-18T03:56:54;100100.72;;;22.98;62.55
6144;BME280;3103;49.492;8.474;2022-08-18T03:59:24;100096.84;;;22.99;62.71
6144;BME280;3103;49.492;8.474;2022-08-18T04:01:52;100095.59;;;22.88;63.01
6144;BME280;3103;49.492;8.474;2022-08-18T04:04:25;100089.13;;;22.92;63.28
6144;BME280;3103;49.492;8.474;2022-08-18T04:07:06;100089.31;;;22.87;63.41
6144;BME280;3103;49.492;8.474;2022-08-18T04:09:34;100088.38;;;22.83;63.62
6144;BME280;3103;49.492;8.474;2022-08-18T04:12:05;100083.75;;;22.66;64.46
6144;BME280;3103;49.492;8.474;2022-08-18T04:14:42;100076.72;;;22.48;65.53
6144;BME280;3103;49.492;8.474;2022-08-18T04:17:09;100081.13;;;22.40;66.14
6144;BME280;3103;49.492;8.474;2022-08-18T04:19:36;100081.06;;;22.49;66.32
6144;BME280;3103;49.492;8.474;2022-08-18T04:22:03;100084.31;;;22.42;66.58
6144;BME280;3103;49.492;8.474;2022-08-18T04:24:31;100084.47;;;22.37;67.04
6144;BME280;3103;49.492;8.474;2022-08-18T04:27:02;100087.88;;;22.34;67.27
6144;BME280;3103;49.492;8.474;2022-08-18T04:29:30;100090.00;;;22.29;67.62
6144;BME280;3103;49.492;8.474;2022-08-18T04:32:00;100101.94;;;22.24;67.85
6144;BME280;3103;49.492;8.474;2022-08-18T04:34:30;100102.41;;;22.17;67.91
6144;BME280;3103;49.492;8.474;2022-08-18T04:36:58;100104.16;;;22.22;68.18
6144;BME280;3103;49.492;8.474;2022-08-18T04:39:25;100109.31;;;22.23;68.02
6144;BME280;3103;49.492;8.474;2022-08-18T04:41:52;100107.16;;;22.46;67.27
6144;BME280;3103;49.492;8.474;2022-08-18T04:44:20;100111.50;;;22.56;66.76
6144;BME280;3103;49.492;8.474;2022-08-18T04:46:50;100124.53;;;22.50;67.00
6144;BME280;3103;49.492;8.474;2022-08-18T04:49:20;100127.66;;;22.32;67.78
6144;BME280;3103;49.492;8.474;2022-08-18T04:51:49;100130.06;;;22.33;67.90
6144;BME280;3103;49.492;8.474;2022-08-18T04:54:55;100125.06;;;22.35;67.80
6144;BME280;3103;49.492;8.474;2022-08-18T04:57:22;100129.06;;;22.46;67.39
6144;BME280;3103;49.492;8.474;2022-08-18T04:59:50;100122.25;;;22.61;67.05
6144;BME280;3103;49.492;8.474;2022-08-18T05:02:19;100123.31;;;22.77;66.13
6144;BME280;3103;49.492;8.474;2022-08-18T05:04:46;100125.13;;;22.65;67.22
6144;BME280;3103;49.492;8.474;2022-08-18T05:07:17;100127.47;;;22.45;68.40
6144;BME280;3103;49.492;8.474;2022-08-18T05:09:45;100134.09;;;22.18;70.45
6144;BME280;3103;49.492;8.474;2022-08-18T05:12:13;100138.94;;;22.21;70.32
6144;BME280;3103;49.492;8.474;2022-08-18T05:14:42;100140.72;;;22.09;71.05
6144;BME280;3103;49.492;8.474;2022-08-18T05:17:14;100137.16;;;22.17;70.80
6144;BME280;3103;49.492;8.474;2022-08-18T05:19:41;100142.13;;;22.32;70.13
6144;BME280;3103;49.492;8.474;2022-08-18T05:22:11;100143.75;;;22.42;69.82
6144;BME280;3103;49.492;8.474;2022-08-18T05:24:44;100148.53;;;22.54;69.64
6144;BME280;3103;49.492;8.474;2022-08-18T05:27:11;100148.69;;;22.48;69.87
6144;BME280;3103;49.492;8.474;2022-08-18T05:29:38;100150.31;;;22.49;70.20
6144;BME280;3103;49.492;8.474;2022-08-18T05:32:12;100147.47;;;22.20;71.70
6144;BME280;3103;49.492;8.474;2022-08-18T05:35:10;100152.47;;;22.09;72.70
6144;BME280;3103;49.492;8.474;2022-08-18T05:38:17;100160.50;;;21.97;73.15
6144;BME280;3103;49.492;8.474;2022-08-18T05:40:58;100151.00;;;22.29;71.76
6144;BME280;3103;49.492;8.474;2022-08-18T05:43:25;100147.13;;;22.30;71.50
6144;BME280;3103;49.492;8.474;2022-08-18T05:45:52;100152.78;;;22.16;72.35
6144;BME280;3103;49.492;8.474;2022-08-18T05:48:22;100147.94;;;22.22;72.40
6144;BME280;3103;49.492;8.474;2022-08-18T05:50:49;100152.78;;;22.16;72.62
6144;BME280;3103;49.492;8.474;2022-08-18T05:53:16;100148.59;;;22.19;72.25
6144;BME280;3103;49.492;8.474;2022-08-18T05:56:00;100144.72;;;22.20;72.17
6144;BME280;3103;49.492;8.474;2022-08-18T05:58:50;100140.38;;;21.93;73.53
6144;BME280;3103;49.492;8.474;2022-08-18T06:01:25;100137.81;;;21.88;74.00
6144;BME280;3103;49.492;8.474;2022-08-18T06:04:38;100137.97;;;22.00;73.35
6144;BME280;3103;49.492;8.474;2022-08-18T06:07:09;100135.53;;;21.90;74.09
6144;BME280;3103;49.492;8.474;2022-08-18T06:09:46;100134.28;;;21.70;74.90
6144;BME280;3103;49.492;8.474;2022-08-18T06:12:26;100125.72;;;21.63;76.26
6144;BME280;3103;49.492;8.474;2022-08-18T06:15:04;100126.22;;;21.82;75.07
6144;BME280;3103;49.492;8.474;2022-08-18T06:20:29;100125.25;;;21.96;74.82
6144;BME280;3103;49.492;8.474;2022-08-18T06:23:40;100117.84;;;22.05;74.05
6144;BME280;3103;49.492;8.474;2022-08-18T06:29:15;100132.97;;;22.28;72.85
6144;BME280;3103;49.492;8.474;2022-08-18T06:31:58;100135.72;;;22.19;73.12
6144;BME280;3103;49.492;8.474;2022-08-18T06:37:19;100131.69;;;22.26;72.78
6144;BME280;3103;49.492;8.474;2022-08-18T06:39:50;100137.16;;;22.08;73.70
6144;BME280;3103;49.492;8.474;2022-08-18T06:42:19;100142.50;;;22.13;73.83
6144;BME280;3103;49.492;8.474;2022-08-18T06:44:50;100144.56;;;22.25;73.23
6144;BME280;3103;49.492;8.474;2022-08-18T06:50:31;100156.75;;;22.45;72.23
6144;BME280;3103;49.492;8.474;2022-08-18T06:53:03;100154.31;;;22.61;71.29
6144;BME280;3103;49.492;8.474;2022-08-18T06:55:39;100161.53;;;22.74;70.58
6144;BME280;3103;49.492;8.474;2022-08-18T07:00:44;100163.63;;;22.86;69.69
6144;BME280;3103;49.492;8.474;2022-08-18T07:03:39;100166.50;;;22.80;70.13
6144;BME280;3103;49.492;8.474;2022-08-18T07:08:51;100171.97;;;22.89;69.31
6144;BME280;3103;49.492;8.474;2022-08-18T07:11:28;100179.38;;;22.80;69.16
6144;BME280;3103;49.492;8.474;2022-08-18T07:13:58;100185.53;;;22.68;69.81
6144;BME280;3103;49.492;8.474;2022-08-18T07:16:42;100180.22;;;22.63;70.63
6144;BME280;3103;49.492;8.474;2022-08-18T07:19:30;100178.81;;;22.57;70.69
6144;BME280;3103;49.492;8.474;2022-08-18T07:22:13;100178.91;;;22.78;69.95
6144;BME280;3103;49.492;8.474;2022-08-18T07:24:45;100174.72;;;22.89;69.67
6144;BME280;3103;49.492;8.474;2022-08-18T07:27:18;100175.66;;;22.93;69.43
6144;BME280;3103;49.492;8.474;2022-08-18T07:30:08;100168.56;;;22.92;69.41
6144;BME280;3103;49.492;8.474;2022-08-18T07:32:48;100164.69;;;22.93;69.43
6144;BME280;3103;49.492;8.474;2022-08-18T07:35:18;100160.53;;;22.87;69.82
6144;BME280;3103;49.492;8.474;2022-08-18T07:37:59;100172.44;;;22.91;69.66
6144;BME280;3103;49.492;8.474;2022-08-18T07:40:54;100174.56;;;22.86;70.11
6144;BME280;3103;49.492;8.474;2022-08-18T07:43:28;100175.38;;;22.86;69.92
6144;BME280;3103;49.492;8.474;2022-08-18T07:46:07;100171.81;;;22.86;70.13
6144;BME280;3103;49.492;8.474;2022-08-18T07:48:35;100171.34;;;22.75;70.59
6144;BME280;3103;49.492;8.474;2022-08-18T08:05:06;100180.69;;;22.74;70.86
6144;BME280;3103;49.492;8.474;2022-08-18T08:07:54;100181.44;;;23.00;69.39
6144;BME280;3103;49.492;8.474;2022-08-18T08:10:32;100179.06;;;22.90;69.64
6144;BME280;3103;49.492;8.474;2022-08-18T08:13:33;100187.28;;;22.90;69.59
6144;BME280;3103;49.492;8.474;2022-08-18T08:16:32;100193.72;;;22.77;70.20
6144;BME280;3103;49.492;8.474;2022-08-18T08:19:41;100183.38;;;23.00;69.45
6144;BME280;3103;49.492;8.474;2022-08-18T08:22:38;100183.56;;;22.95;69.52
6144;BME280;3103;49.492;8.474;2022-08-18T08:34:19;100188.94;;;22.57;70.46
6144;BME280;3103;49.492;8.474;2022-08-18T08:36:52;100192.59;;;22.87;69.72
6144;BME280;3103;49.492;8.474;2022-08-18T08:39:33;100198.88;;;22.96;69.37
6144;BME280;3103;49.492;8.474;2022-08-18T08:45:03;100197.75;;;22.88;69.05
6144;BME280;3103;49.492;8.474;2022-08-18T08:47:57;100206.75;;;22.97;68.60
6144;BME280;3103;49.492;8.474;2022-08-18T08:50:40;100215.25;;;23.04;67.95
6144;BME280;3103;49.492;8.474;2022-08-18T08:53:24;100219.47;;;23.02;67.65
6144;BME280;3103;49.492;8.474;2022-08-18T08:55:56;100218.19;;;22.99;67.26
6144;BME280;3103;49.492;8.474;2022-08-18T08:58:43;100229.41;;;23.15;66.73
6144;BME280;3103;49.492;8.474;2022-08-18T09:01:34;100231.38;;;23.06;66.62
6144;BME280;3103;49.492;8.474;2022-08-18T09:04:18;100227.81;;;23.05;65.99
6144;BME280;3103;49.492;8.474;2022-08-18T09:09:58;100239.44;;;23.02;65.92
6144;BME280;3103;49.492;8.474;2022-08-18T09:16:02;100250.59;;;22.89;67.53
6144;BME280;3103;49.492;8.474;2022-08-18T09:18:41;100254.94;;;22.98;68.36
6144;BME280;3103;49.492;8.474;2022-08-18T09:21:23;100265.56;;;23.00;68.94
6144;BME280;3103;49.492;8.474;2022-08-18T09:24:19;100266.22;;;22.88;70.33
6144;BME280;3103;49.492;8.474;2022-08-18T09:26:49;100282.00;;;22.91;70.63
6144;BME280;3103;49.492;8.474;2022-08-18T09:29:18;100275.72;;;22.99;70.37
6144;BME280;3103;49.492;8.474;2022-08-18T09:40:46;100257.22;;;22.88;71.49
6144;BME280;3103;49.492;8.474;2022-08-18T09:43:37;100233.38;;;22.88;72.29
6144;BME280;3103;49.492;8.474;2022-08-18T09:46:06;100235.91;;;22.93;72.19
6144;BME280;3103;49.492;8.474;2022-08-18T09:48:39;100234.78;;;23.03;71.12
6144;BME280;3103;49.492;8.474;2022-08-18T09:56:16;100217.63;;;23.23;72.09
6144;BME280;3103;49.492;8.474;2022-08-18T09:58:58;100212.44;;;23.22;71.38
6144;BME280;3103;49.492;8.474;2022-08-18T10:01:39;100209.78;;;23.43;70.35
6144;BME280;3103;49.492;8.474;2022-08-18T10:04:27;100212.84;;;23.41;70.61
6144;BME280;3103;49.492;8.474;2022-08-18T10:10:39;100207.06;;;23.34;71.50
6144;BME280;3103;49.492;8.474;2022-08-18T10:18:52;100221.22;;;23.45;69.80
6144;BME280;3103;49.492;8.474;2022-08-18T10:21:24;100214.94;;;23.44;70.50
6144;BME280;3103;49.492;8.474;2022-08-18T10:24:20;100227.03;;;23.43;71.70
6144;BME280;3103;49.492;8.474;2022-08-18T10:27:11;100239.03;;;23.30;71.79
6144;BME280;3103;49.492;8.474;2022-08-18T10:29:57;100232.94;;;23.24;72.08
6144;BME280;3103;49.492;8.474;2022-08-18T10:32:39;100233.69;;;23.33;71.42
6144;BME280;3103;49.492;8.474;2022-08-18T10:35:56;100237.84;;;23.39;71.85
6144;BME280;3103;49.492;8.474;2022-08-18T10:38:44;100225.41;;;23.42;72.50
6144;BME280;3103;49.492;8.474;2022-08-18T10:41:22;100230.66;;;23.56;70.79
6144;BME280;3103;49.492;8.474;2022-08-18T10:43:52;100226.38;;;23.46;71.32
6144;BME280;3103;49.492;8.474;2022-08-18T10:46:27;100223.34;;;23.39;72.31
6144;BME280;3103;49.492;8.474;2022-08-18T10:49:21;100223.72;;;23.29;73.10
6144;BME280;3103;49.492;8.474;2022-08-18T11:00:11;100175.69;;;23.52;71.49
6144;BME280;3103;49.492;8.474;2022-08-18T11:05:46;100161.63;;;23.62;70.32
6144;BME280;3103;49.492;8.474;2022-08-18T11:08:17;100161.44;;;23.67;69.76
6144;BME280;3103;49.492;8.474;2022-08-18T11:10:48;100171.44;;;23.63;70.00
6144;BME280;3103;49.492;8.474;2022-08-18T11:14:02;100176.63;;;23.65;68.16
6144;BME280;3103;49.492;8.474;2022-08-18T11:19:20;100146.50;;;23.77;68.55
6144;BME280;3103;49.492;8.474;2022-08-18T11:21:51;100130.09;;;23.89;68.56
6144;BME280;3103;49.492;8.474;2022-08-18T11:27:17;100130.88;;;24.32;66.14
6144;BME280;3103;49.492;8.474;2022-08-18T11:29:48;100139.41;;;24.51;65.76
6144;BME280;3103;49.492;8.474;2022-08-18T11:32:27;100149.56;;;24.17;66.56
6144;BME280;3103;49.492;8.474;2022-08-18T11:43:12;100154.63;;;24.61;65.65
6144;BME280;3103;49.492;8.474;2022-08-18T11:46:08;100147.53;;;24.60;65.80
6144;BME280;3103;49.492;8.474;2022-08-18T11:51:31;100144.22;;;24.54;66.27
6144;BME280;3103;49.492;8.474;2022-08-18T11:56:34;100134.22;;;24.37;66.97
6144;BME280;3103;49.492;8.474;2022-08-18T12:02:23;100128.78;;;24.49;67.31
6144;BME280;3103;49.492;8.474;2022-08-18T12:04:53;100135.66;;;24.68;66.80
6144;BME280;3103;49.492;8.474;2022-08-18T12:07:28;100145.41;;;24.65;66.39
6144;BME280;3103;49.492;8.474;2022-08-18T12:12:49;100129.84;;;24.81;65.68
6144;BME280;3103;49.492;8.474;2022-08-18T12:18:05;100117.41;;;25.21;63.67
6144;BME280;3103;49.492;8.474;2022-08-18T12:20:33;100118.66;;;25.11;64.09
6144;BME280;3103;49.492;8.474;2022-08-18T12:23:01;100118.41;;;25.16;63.30
6144;BME280;3103;49.492;8.474;2022-08-18T12:25:28;100120.00;;;25.29;62.82
6144;BME280;3103;49.492;8.474;2022-08-18T12:27:56;100116.53;;;25.44;61.80
6144;BME280;3103;49.492;8.474;2022-08-18T12:30:22;100106.84;;;25.35;61.31
6144;BME280;3103;49.492;8.474;2022-08-18T12:32:51;100103.41;;;25.38;61.40
6144;BME280;3103;49.492;8.474;2022-08-18T12:35:31;100106.03;;;25.34;61.62
6144;BME280;3103;49.492;8.474;2022-08-18T12:38:00;100110.91;;;25.53;60.30
6144;BME280;3103;49.492;8.474;2022-08-18T12:40:38;100099.94;;;25.41;60.73
6144;BME280;3103;49.492;8.474;2022-08-18T12:43:05;100099.94;;;25.41;60.02
6144;BME280;3103;49.492;8.474;2022-08-18T12:45:33;100094.00;;;25.39;60.38
6144;BME280;3103;49.492;8.474;2022-08-18T12:48:02;100089.03;;;25.44;60.23
6144;BME280;3103;49.492;8.474;2022-08-18T12:50:49;100083.78;;;25.52;59.94
6144;BME280;3103;49.492;8.474;2022-08-18T12:53:36;100085.47;;;25.56;60.15
6144;BME280;3103;49.492;8.474;2022-08-18T12:56:26;100084.63;;;25.80;59.10
6144;BME280;3103;49.492;8.474;2022-08-18T12:58:58;100081.66;;;25.73;59.29
6144;BME280;3103;49.492;8.474;2022-08-18T13:01:30;100077.88;;;25.78;59.17
6144;BME280;3103;49.492;8.474;2022-08-18T13:03:57;100071.22;;;26.07;57.87
6144;BME280;3103;49.492;8.474;2022-08-18T13:06:46;100063.16;;;25.86;58.82
6144;BME280;3103;49.492;8.474;2022-08-18T13:09:27;100060.81;;;25.72;59.43
6144;BME280;3103;49.492;8.474;2022-08-18T13:12:09;100058.22;;;25.91;59.11
6144;BME280;3103;49.492;8.474;2022-08-18T13:14:40;100058.81;;;25.85;59.81
6144;BME280;3103;49.492;8.474;2022-08-18T13:17:09;100067.09;;;26.00;59.44
6144;BME280;3103;49.492;8.474;2022-08-18T13:19:55;100063.72;;;25.91;59.30
6144;BME280;3103;49.492;8.474;2022-08-18T13:22:23;100058.59;;;26.06;59.21
6144;BME280;3103;49.492;8.474;2022-08-18T13:25:00;100046.16;;;26.12;58.75
6144;BME280;3103;49.492;8.474;2022-08-18T13:27:28;100048.06;;;26.23;58.39
6144;BME280;3103;49.492;8.474;2022-08-18T13:30:09;100054.28;;;26.20;58.45
6144;BME280;3103;49.492;8.474;2022-08-18T13:32:56;100047.66;;;26.37;57.61
6144;BME280;3103;49.492;8.474;2022-08-18T13:35:28;100047.38;;;26.42;57.43
6144;BME280;3103;49.492;8.474;2022-08-18T13:38:11;100040.47;;;26.48;56.71
6144;BME280;3103;49.492;8.474;2022-08-18T13:40:48;100048.09;;;26.55;56.96
6144;BME280;3103;49.492;8.474;2022-08-18T13:43:17;100041.50;;;26.75;56.83
6144;BME280;3103;49.492;8.474;2022-08-18T13:45:49;100039.44;;;26.88;55.45
6144;BME280;3103;49.492;8.474;2022-08-18T13:48:21;100026.81;;;26.87;55.09
6144;BME280;3103;49.492;8.474;2022-08-18T13:50:49;100030.16;;;26.96;54.91
6144;BME280;3103;49.492;8.474;2022-08-18T13:53:19;100017.25;;;27.16;54.04
6144;BME280;3103;49.492;8.474;2022-08-18T13:55:48;100018.69;;;27.10;54.28
6144;BME280;3103;49.492;8.474;2022-08-18T13:58:17;100017.72;;;27.37;53.64
6144;BME280;3103;49.492;8.474;2022-08-18T14:00:49;100017.84;;;27.25;54.02
6144;BME280;3103;49.492;8.474;2022-08-18T14:03:20;100009.06;;;27.39;53.85
6144;BME280;3103;49.492;8.474;2022-08-18T14:06:10;100004.88;;;27.45;53.43
6144;BME280;3103;49.492;8.474;2022-08-18T14:08:40;100000.19;;;27.30;53.71
6144;BME280;3103;49.492;8.474;2022-08-18T14:11:08;100000.13;;;27.26;53.19
6144;BME280;3103;49.492;8.474;2022-08-18T14:13:35;100005.09;;;27.36;52.51
6144;BME280;3103;49.492;8.474;2022-08-18T14:16:10;100000.88;;;27.23;52.83
6144;BME280;3103;49.492;8.474;2022-08-18T14:18:46;99999.28;;;27.22;52.71
6144;BME280;3103;49.492;8.474;2022-08-18T14:21:41;100003.69;;;27.27;52.83
6144;BME280;3103;49.492;8.474;2022-08-18T14:24:29;100006.09;;;27.47;50.53
6144;BME280;3103;49.492;8.474;2022-08-18T14:27:16;100004.72;;;27.38;51.86
6144;BME280;3103;49.492;8.474;2022-08-18T14:29:44;99996.75;;;27.33;51.51
6144;BME280;3103;49.492;8.474;2022-08-18T14:32:21;100004.72;;;27.38;51.36
6144;BME280;3103;49.492;8.474;2022-08-18T14:34:57;100007.47;;;27.38;51.41
6144;BME280;3103;49.492;8.474;2022-08-18T14:37:38;99998.63;;;27.48;51.32
6144;BME280;3103;49.492;8.474;2022-08-18T14:40:07;99997.31;;;27.42;51.59
6144;BME280;3103;49.492;8.474;2022-08-18T14:42:38;99991.00;;;27.41;51.54
6144;BME280;3103;49.492;8.474;2022-08-18T14:45:24;99997.16;;;27.35;51.85
6144;BME280;3103;49.492;8.474;2022-08-18T14:48:01;100001.44;;;27.51;51.33
6144;BME280;3103;49.492;8.474;2022-08-18T14:50:34;100006.13;;;27.67;50.87
6144;BME280;3103;49.492;8.474;2022-08-18T14:53:01;100012.53;;;27.94;50.10
6144;BME280;3103;49.492;8.474;2022-08-18T14:55:27;100008.34;;;28.46;48.36
6144;BME280;3103;49.492;8.474;2022-08-18T14:57:56;100000.38;;;29.20;45.58
6144;BME280;3103;49.492;8.474;2022-08-18T15:00:25;99995.47;;;29.70;44.11
6144;BME280;3103;49.492;8.474;2022-08-18T15:02:53;99999.41;;;30.50;42.50
6144;BME280;3103;49.492;8.474;2022-08-18T15:05:20;99999.44;;;30.54;40.99
6144;BME280;3103;49.492;8.474;2022-08-18T15:07:51;100010.22;;;30.62;39.83
6144;BME280;3103;49.492;8.474;2022-08-18T15:10:18;100010.84;;;30.45;40.19
6144;BME280;3103;49.492;8.474;2022-08-18T15:12:53;100009.94;;;30.30;40.34
6144;BME280;3103;49.492;8.474;2022-08-18T15:15:20;100019.53;;;30.91;39.06
6144;BME280;3103;49.492;8.474;2022-08-18T15:17:48;100009.59;;;30.35;39.92
6144;BME280;3103;49.492;8.474;2022-08-18T15:20:20;100010.94;;;30.11;40.05
6144;BME280;3103;49.492;8.474;2022-08-18T15:22:59;100019.72;;;29.83;40.80
6144;BME280;3103;49.492;8.474;2022-08-18T15:25:54;100016.06;;;30.09;40.15
6144;BME280;3103;49.492;8.474;2022-08-18T15:28:23;100018.88;;;29.76;40.17
6144;BME280;3103;49.492;8.474;2022-08-18T15:30:53;100009.84;;;29.19;41.47
6144;BME280;3103;49.492;8.474;2022-08-18T15:33:39;100007.47;;;28.42;43.65
6144;BME280;3103;49.492;8.474;2022-08-18T15:36:07;100006.22;;;27.93;45.32
6144;BME280;3103;49.492;8.474;2022-08-18T15:38:35;100004.44;;;27.82;45.00
6144;BME280;3103;49.492;8.474;2022-08-18T15:41:02;100007.59;;;28.03;43.01
6144;BME280;3103;49.492;8.474;2022-08-18T15:43:35;100013.22;;;27.87;42.65
6144;BME280;3103;49.492;8.474;2022-08-18T15:46:12;100015.78;;;27.76;43.62
6144;BME280;3103;49.492;8.474;2022-08-18T15:48:42;100019.69;;;27.75;43.03